createdAt,value
2023-01-01T00:00:43.503Z,23.35
2023-01-01T00:03:10.534Z,24.80
2023-01-01T00:05:40.548Z,23.27
2023-01-01T00:08:07.417Z,23.20
2023-01-01T00:10:34.310Z,33.13
2023-01-01T00:13:01.462Z,32.45
2023-01-01T00:15:28.880Z,34.33
2023-01-01T00:17:56.211Z,28.10
2023-01-01T00:20:23.647Z,30.83
2023-01-01T00:22:55.395Z,28.42
2023-01-01T00:25:23.619Z,25.88
2023-01-01T00:27:50.696Z,26.95
2023-01-01T00:30:17.796Z,22.27
2023-01-01T00:32:55.527Z,19.63
2023-01-01T00:35:26.904Z,19.55
2023-01-01T00:37:55.329Z,23.50
2023-01-01T00:40:22.460Z,18.50
2023-01-01T00:42:49.357Z,19.63
2023-01-01T00:45:21.356Z,22.52
2023-01-01T00:47:52.747Z,18.67
2023-01-01T00:50:20.899Z,16.00
2023-01-01T00:52:49.189Z,18.92
2023-01-01T00:55:16.746Z,19.20
2023-01-01T00:57:43.629Z,17.45
2023-01-01T01:00:11.381Z,20.10
2023-01-01T01:02:38.450Z,12.15
2023-01-01T01:05:06.085Z,13.82
2023-01-01T01:07:36.830Z,14.07
2023-01-01T01:10:04.036Z,13.27
2023-01-01T01:12:30.975Z,15.80
2023-01-01T01:14:57.840Z,10.80
2023-01-01T01:17:24.765Z,16.60
2023-01-01T01:19:51.628Z,8.20
2023-01-01T01:22:21.582Z,9.18
2023-01-01T01:24:51.432Z,8.65
2023-01-01T01:27:18.422Z,11.53
2023-01-01T01:29:45.363Z,11.80
2023-01-01T01:32:12.938Z,12.07
2023-01-01T01:34:39.772Z,13.18
2023-01-01T01:37:06.686Z,12.60
2023-01-01T01:39:33.627Z,10.27
2023-01-01T01:42:02.556Z,10.70
2023-01-01T01:44:51.737Z,11.07
2023-01-01T01:47:25.232Z,8.45
2023-01-01T01:50:07.422Z,11.10
2023-01-01T01:52:38.167Z,10.10
2023-01-01T01:55:08.008Z,12.00
2023-01-01T01:57:36.078Z,8.57
2023-01-01T02:00:10.628Z,9.77
2023-01-01T02:03:05.597Z,9.80
2023-01-01T02:05:34.563Z,7.43
2023-01-01T02:08:04.241Z,9.75
2023-01-01T02:10:31.473Z,16.25
2023-01-01T02:12:58.697Z,9.00
2023-01-01T02:15:31.246Z,11.85
2023-01-01T02:18:10.986Z,6.75
2023-01-01T02:21:00.414Z,9.77
2023-01-01T02:23:31.460Z,14.35
2023-01-01T02:26:12.803Z,11.77
2023-01-01T02:29:02.920Z,12.80
2023-01-01T02:31:39.220Z,9.05
2023-01-01T02:34:09.999Z,10.07
2023-01-01T02:36:42.268Z,13.80
2023-01-01T02:39:10.029Z,9.35
2023-01-01T02:41:41.580Z,12.88
2023-01-01T02:44:08.749Z,9.30
2023-01-01T02:46:36.680Z,7.43
2023-01-01T02:49:09.821Z,8.68
2023-01-01T02:51:59.107Z,9.23
2023-01-01T02:54:42.489Z,11.27
2023-01-01T02:57:13.029Z,7.88
2023-01-01T03:00:19.479Z,6.75
2023-01-01T03:02:55.286Z,8.32
2023-01-01T03:06:13.350Z,6.97
2023-01-01T03:08:43.158Z,7.57
2023-01-01T03:11:13.488Z,9.00
2023-01-01T03:14:07.091Z,6.97
2023-01-01T03:16:46.963Z,6.70
2023-01-01T03:19:29.889Z,5.55
2023-01-01T03:22:18.869Z,6.10
2023-01-01T03:25:01.000Z,5.95
2023-01-01T03:27:46.442Z,5.20
2023-01-01T03:30:15.836Z,6.57
2023-01-01T03:33:07.853Z,10.93
2023-01-01T03:35:43.515Z,9.03
2023-01-01T03:38:42.084Z,9.18
2023-01-01T03:41:15.793Z,5.22
2023-01-01T03:43:47.105Z,7.30
2023-01-01T03:46:16.816Z,9.07
2023-01-01T03:49:03.825Z,6.35
2023-01-01T03:51:58.524Z,7.00
2023-01-01T03:54:43.219Z,7.20
2023-01-01T03:57:28.575Z,6.33
2023-01-01T04:00:02.928Z,6.22
2023-01-01T04:02:50.086Z,7.43
2023-01-01T04:05:18.789Z,9.77
2023-01-01T04:10:19.424Z,9.25
2023-01-01T04:12:48.303Z,12.45
2023-01-01T04:15:17.579Z,14.05
2023-01-01T04:17:44.636Z,9.88
2023-01-01T04:20:12.555Z,9.18
2023-01-01T04:22:40.167Z,12.02
2023-01-01T04:25:08.158Z,12.20
2023-01-01T04:27:35.265Z,12.23
2023-01-01T04:30:04.868Z,10.00
2023-01-01T04:32:34.453Z,10.30
2023-01-01T04:35:01.534Z,10.05
2023-01-01T04:37:28.560Z,11.15
2023-01-01T04:39:55.448Z,6.47
2023-01-01T04:42:22.424Z,10.95
2023-01-01T04:44:49.336Z,10.17
2023-01-01T04:47:16.231Z,11.48
2023-01-01T04:49:43.236Z,12.32
2023-01-01T04:52:10.097Z,9.80
2023-01-01T04:54:37.014Z,6.72
2023-01-01T04:57:03.967Z,11.33
2023-01-01T04:59:31.482Z,9.90
2023-01-01T05:01:59.144Z,6.85
2023-01-01T05:04:26.431Z,5.53
2023-01-01T05:06:53.330Z,8.38
2023-01-01T05:09:20.346Z,6.57
2023-01-01T05:11:47.222Z,8.45
2023-01-01T05:14:14.215Z,8.23
2023-01-01T05:16:41.471Z,14.65
2023-01-01T05:19:09.034Z,4.70
2023-01-01T05:21:38.138Z,8.13
2023-01-01T05:24:09.748Z,7.18
2023-01-01T05:26:41.322Z,11.35
2023-01-01T05:29:15.638Z,8.48
2023-01-01T05:31:43.762Z,9.10
2023-01-01T05:34:10.782Z,7.23
2023-01-01T05:36:39.230Z,5.97
2023-01-01T05:39:12.098Z,8.50
2023-01-01T05:41:40.216Z,3.15
2023-01-01T05:44:09.002Z,5.20
2023-01-01T05:46:39.358Z,3.80
2023-01-01T05:49:06.235Z,5.22
2023-01-01T05:53:59.419Z,8.23
2023-01-01T05:56:27.192Z,8.13
2023-01-01T05:58:55.332Z,5.43
2023-01-01T06:01:30.628Z,7.88
2023-01-01T06:03:59.162Z,8.13
2023-01-01T06:06:32.972Z,4.75
2023-01-01T06:09:05.186Z,5.90
2023-01-01T06:11:32.716Z,5.07
2023-01-01T06:14:01.276Z,4.00
2023-01-01T06:16:29.928Z,6.43
2023-01-01T06:18:56.947Z,5.45
2023-01-01T06:21:25.598Z,6.50
2023-01-01T06:23:52.905Z,2.92
2023-01-01T06:26:22.812Z,6.03
2023-01-01T06:28:50.380Z,4.47
2023-01-01T06:31:21.877Z,4.33
2023-01-01T06:33:50.858Z,3.55
2023-01-01T06:36:20.029Z,1.97
2023-01-01T06:38:49.594Z,6.43
2023-01-01T06:41:23.139Z,6.20
2023-01-01T06:43:50.235Z,3.88
2023-01-01T06:46:34.901Z,3.92
2023-01-01T06:49:04.787Z,7.90
2023-01-01T06:51:42.974Z,8.00
2023-01-01T06:54:10.816Z,3.10
2023-01-01T06:56:38.023Z,3.75
2023-01-01T06:59:05.538Z,4.80
2023-01-01T07:01:36.016Z,8.30
2023-01-01T07:04:05.900Z,2.97
2023-01-01T07:06:36.270Z,5.68
2023-01-01T07:09:04.271Z,4.57
2023-01-01T07:11:31.754Z,6.88
2023-01-01T07:13:58.659Z,5.53
2023-01-01T07:16:25.948Z,3.45
2023-01-01T07:18:53.143Z,3.42
2023-01-01T07:21:40.233Z,3.50
2023-01-01T07:24:09.817Z,5.68
2023-01-01T07:26:36.666Z,5.93
2023-01-01T07:29:07.576Z,4.82
2023-01-01T07:31:40.068Z,4.60
2023-01-01T07:34:07.951Z,5.60
2023-01-01T07:36:34.893Z,6.82
2023-01-01T07:39:01.819Z,5.22
2023-01-01T07:41:28.700Z,3.55
2023-01-01T07:43:55.579Z,4.97
2023-01-01T07:46:22.594Z,4.47
2023-01-01T07:48:49.554Z,3.97
2023-01-01T07:51:16.435Z,6.07
2023-01-01T07:53:43.351Z,5.22
2023-01-01T07:56:10.489Z,5.15
2023-01-01T07:58:41.309Z,5.80
2023-01-01T08:01:12.292Z,4.10
2023-01-01T08:03:39.453Z,7.00
2023-01-01T08:06:11.529Z,6.87
2023-01-01T08:08:39.015Z,6.38
2023-01-01T08:11:06.075Z,6.40
2023-01-01T08:13:32.935Z,7.45
2023-01-01T08:15:59.939Z,3.88
2023-01-01T08:18:26.917Z,6.82
2023-01-01T08:20:54.221Z,5.35
2023-01-01T08:23:21.184Z,6.45
2023-01-01T08:25:48.126Z,5.18
2023-01-01T08:28:15.045Z,6.97
2023-01-01T08:30:42.055Z,7.57
2023-01-01T08:33:08.887Z,7.30
2023-01-01T08:35:38.705Z,8.23
2023-01-01T08:38:05.928Z,10.15
2023-01-01T08:40:32.866Z,7.35
2023-01-01T08:42:59.795Z,8.18
2023-01-01T08:45:26.657Z,9.52
2023-01-01T08:47:53.539Z,9.32
2023-01-01T08:50:20.583Z,7.03
2023-01-01T08:52:47.543Z,7.97
2023-01-01T08:55:14.505Z,8.70
2023-01-01T08:57:41.371Z,8.27
2023-01-01T09:00:09.654Z,8.90
2023-01-01T09:02:36.753Z,8.82
2023-01-01T09:05:03.868Z,10.13
2023-01-01T09:07:30.744Z,8.52
2023-01-01T09:09:57.592Z,7.60
2023-01-01T09:12:24.660Z,10.30
2023-01-01T09:14:51.568Z,9.30
2023-01-01T09:17:18.518Z,8.50
2023-01-01T09:19:45.370Z,8.45
2023-01-01T09:22:13.159Z,8.80
2023-01-01T09:24:40.053Z,8.60
2023-01-01T09:27:06.924Z,8.45
2023-01-01T09:29:33.868Z,8.10
2023-01-01T09:32:00.818Z,8.38
2023-01-01T09:34:28.199Z,12.95
2023-01-01T09:36:55.640Z,10.52
2023-01-01T09:39:22.543Z,8.43
2023-01-01T09:42:23.011Z,7.47
2023-01-01T09:45:22.112Z,7.47
2023-01-01T09:48:12.947Z,9.10
2023-01-01T09:50:43.103Z,8.60
2023-01-01T09:53:17.021Z,9.80
2023-01-01T09:55:55.154Z,7.60
2023-01-01T09:58:26.432Z,8.63
2023-01-01T10:00:56.390Z,10.80
2023-01-01T10:03:47.838Z,5.10
2023-01-01T10:06:33.352Z,10.23
2023-01-01T10:09:23.333Z,14.57
2023-01-01T10:12:06.230Z,9.73
2023-01-01T10:14:37.708Z,7.78
2023-01-01T10:17:16.477Z,11.88
2023-01-01T10:19:45.631Z,11.60
2023-01-01T10:22:20.882Z,8.00
2023-01-01T10:25:03.542Z,8.40
2023-01-01T10:27:37.558Z,7.07
2023-01-01T10:30:20.648Z,11.57
2023-01-01T10:32:52.193Z,9.75
2023-01-01T10:35:30.049Z,11.57
2023-01-01T10:37:59.459Z,10.75
2023-01-01T10:40:28.583Z,10.52
2023-01-01T10:42:57.904Z,8.07
2023-01-01T10:45:35.580Z,10.32
2023-01-01T10:48:22.873Z,12.18
2023-01-01T10:50:55.636Z,10.82
2023-01-01T10:53:37.763Z,13.05
2023-01-01T10:56:14.911Z,11.38
2023-01-01T10:58:51.932Z,16.17
2023-01-01T11:01:18.926Z,13.02
2023-01-01T11:03:56.465Z,12.18
2023-01-01T11:06:28.489Z,7.95
2023-01-01T11:08:57.455Z,12.25
2023-01-01T11:11:29.798Z,9.57
2023-01-01T11:14:01.272Z,8.23
2023-01-01T11:16:29.532Z,6.55
2023-01-01T11:19:05.328Z,12.07
2023-01-01T11:21:33.239Z,8.90
2023-01-01T11:24:20.533Z,9.25
2023-01-01T11:26:54.311Z,10.63
2023-01-01T11:29:29.692Z,10.48
2023-01-01T11:31:58.618Z,10.35
2023-01-01T11:34:58.114Z,11.10
2023-01-01T11:37:33.949Z,10.10
2023-01-01T11:40:02.553Z,9.48
2023-01-01T11:42:32.517Z,10.32
2023-01-01T11:45:06.932Z,12.77
2023-01-01T11:47:39.600Z,10.05
2023-01-01T11:50:34.707Z,9.90
2023-01-01T11:53:24.755Z,12.40
2023-01-01T11:56:12.735Z,14.18
2023-01-01T11:59:04.879Z,13.30
2023-01-01T12:01:52.455Z,12.32
2023-01-01T12:04:36.257Z,13.90
2023-01-01T12:07:09.926Z,8.48
2023-01-01T12:09:57.595Z,12.32
2023-01-01T12:12:39.540Z,8.85
2023-01-01T12:15:45.560Z,11.60
2023-01-01T12:18:18.383Z,15.98
2023-01-01T12:21:00.726Z,13.63
2023-01-01T12:23:27.849Z,11.35
2023-01-01T12:26:19.468Z,8.93
2023-01-01T12:29:05.971Z,9.30
2023-01-01T12:32:00.746Z,12.47
2023-01-01T12:35:00.835Z,15.98
2023-01-01T12:38:03.962Z,15.07
2023-01-01T12:40:38.601Z,8.32
2023-01-01T12:43:21.870Z,9.10
2023-01-01T12:46:00.801Z,10.23
2023-01-01T12:49:03.631Z,17.23
2023-01-01T12:51:35.766Z,11.30
2023-01-01T12:54:31.390Z,12.85
2023-01-01T12:57:37.962Z,11.63
2023-01-01T13:00:16.434Z,11.15
2023-01-01T13:03:05.370Z,14.73
2023-01-01T13:05:37.785Z,13.18
2023-01-01T13:08:05.941Z,13.88
2023-01-01T13:10:37.524Z,13.73
2023-01-01T13:13:05.482Z,11.80
2023-01-01T13:15:38.689Z,19.50
2023-01-01T13:18:06.753Z,16.75
2023-01-01T13:20:38.523Z,12.50
2023-01-01T13:23:05.523Z,19.15
2023-01-01T13:25:32.484Z,13.85
2023-01-01T13:28:03.572Z,12.63
2023-01-01T13:30:39.698Z,11.00
2023-01-01T13:33:29.756Z,13.48
2023-01-01T13:36:22.765Z,15.93
2023-01-01T13:38:52.316Z,13.25
2023-01-01T13:41:32.078Z,11.93
2023-01-01T13:44:03.130Z,11.55
2023-01-01T13:46:51.994Z,15.98
2023-01-01T13:50:01.638Z,13.38
2023-01-01T13:52:46.537Z,15.20
2023-01-01T13:55:54.527Z,15.48
2023-01-01T13:58:49.449Z,19.80
2023-01-01T14:01:40.623Z,15.20
2023-01-01T14:04:17.475Z,15.70
2023-01-01T14:06:50.327Z,13.73
2023-01-01T14:09:21.034Z,13.35
2023-01-01T14:11:48.788Z,15.63
2023-01-01T14:14:36.214Z,10.77
2023-01-01T14:17:07.839Z,9.52
2023-01-01T14:19:35.703Z,17.27
2023-01-01T14:22:07.681Z,12.00
2023-01-01T14:24:42.923Z,11.20
2023-01-01T14:27:13.595Z,16.02
2023-01-01T14:29:41.996Z,19.08
2023-01-01T14:32:15.243Z,13.07
2023-01-01T14:34:43.535Z,12.82
2023-01-01T14:37:23.975Z,15.13
2023-01-01T14:40:18.103Z,14.93
2023-01-01T14:42:46.766Z,11.52
2023-01-01T14:45:18.690Z,13.85
2023-01-01T14:47:50.565Z,19.67
2023-01-01T14:50:25.603Z,12.75
2023-01-01T14:53:05.237Z,15.10
2023-01-01T14:55:44.093Z,12.55
2023-01-01T14:58:30.546Z,13.10
2023-01-01T15:01:25.464Z,16.67
2023-01-01T15:04:01.622Z,14.70
2023-01-01T15:06:29.613Z,14.65
2023-01-01T15:08:57.887Z,14.10
2023-01-01T15:11:29.149Z,14.68
2023-01-01T15:13:59.607Z,12.68
2023-01-01T15:16:33.230Z,12.88
2023-01-01T15:19:16.705Z,14.27
2023-01-01T15:21:43.665Z,24.37
2023-01-01T15:24:17.636Z,17.80
2023-01-01T15:26:49.226Z,15.65
2023-01-01T15:29:32.671Z,15.98
2023-01-01T15:32:06.569Z,13.98
2023-01-01T15:34:55.452Z,15.30
2023-01-01T15:37:42.135Z,13.77
2023-01-01T15:40:15.115Z,12.18
2023-01-01T15:42:47.145Z,16.35
2023-01-01T15:45:27.048Z,17.27
2023-01-01T15:48:13.804Z,15.15
2023-01-01T15:51:00.323Z,13.57
2023-01-01T15:53:29.960Z,16.75
2023-01-01T15:56:03.568Z,15.68
2023-01-01T15:58:56.805Z,13.90
2023-01-01T16:01:27.880Z,12.57
2023-01-01T16:04:08.550Z,15.45
2023-01-01T16:06:52.953Z,15.27
2023-01-01T16:09:21.095Z,15.15
2023-01-01T16:11:55.887Z,14.13
2023-01-01T16:14:23.345Z,17.70
2023-01-01T16:17:00.893Z,10.52
2023-01-01T16:19:32.672Z,14.30
2023-01-01T16:21:59.663Z,17.02
2023-01-01T16:24:27.662Z,10.60
2023-01-01T16:26:54.456Z,12.30
2023-01-01T16:29:21.320Z,16.50
2023-01-01T16:31:48.559Z,12.75
2023-01-01T16:34:15.823Z,14.65
2023-01-01T16:36:43.858Z,13.23
2023-01-01T16:39:11.292Z,10.85
2023-01-01T16:41:42.111Z,17.83
2023-01-01T16:44:13.690Z,10.97
2023-01-01T16:46:40.838Z,11.18
2023-01-01T16:49:07.787Z,15.20
2023-01-01T16:51:35.211Z,17.38
2023-01-01T16:54:02.302Z,13.98
2023-01-01T16:56:29.564Z,17.27
2023-01-01T16:59:02.682Z,15.52
2023-01-01T17:01:30.903Z,22.30
2023-01-01T17:03:58.244Z,13.52
2023-01-01T17:06:25.189Z,16.13
2023-01-01T17:08:52.075Z,16.08
2023-01-01T17:11:19.096Z,13.07
2023-01-01T17:13:48.049Z,12.30
2023-01-01T17:16:23.598Z,15.82
2023-01-01T17:21:41.267Z,13.23
2023-01-01T17:24:08.439Z,12.25
2023-01-01T17:26:35.421Z,15.00
2023-01-01T17:29:03.055Z,12.93
2023-01-01T17:31:30.154Z,15.38
2023-01-01T17:33:57.120Z,14.18
2023-01-01T17:36:24.338Z,10.43
2023-01-01T17:38:51.288Z,12.57
2023-01-01T17:41:18.693Z,10.93
2023-01-01T17:43:48.696Z,12.20
2023-01-01T17:46:21.270Z,10.50
2023-01-01T17:48:49.521Z,16.45
2023-01-01T17:51:17.877Z,16.85
2023-01-01T17:53:45.496Z,17.70
2023-01-01T17:56:14.845Z,14.27
2023-01-01T17:58:43.062Z,16.05
2023-01-01T18:01:13.254Z,12.45
2023-01-01T18:03:41.294Z,15.00
2023-01-01T18:06:08.657Z,14.15
2023-01-01T18:08:35.572Z,15.57
2023-01-01T18:11:05.481Z,13.48
2023-01-01T18:13:35.069Z,17.73
2023-01-01T18:16:06.910Z,20.42
2023-01-01T18:18:38.357Z,12.85
2023-01-01T18:21:26.706Z,14.87
2023-01-01T18:23:55.477Z,15.73
2023-01-01T18:26:24.948Z,17.63
2023-01-01T18:29:02.526Z,15.35
2023-01-01T18:31:31.725Z,15.05
2023-01-01T18:34:00.392Z,20.13
2023-01-01T18:36:29.971Z,15.30
2023-01-01T18:39:00.674Z,12.88
2023-01-01T18:41:52.819Z,15.10
2023-01-01T18:44:25.070Z,14.43
2023-01-01T18:47:11.732Z,16.85
2023-01-01T18:49:39.305Z,12.88
2023-01-01T18:52:12.773Z,12.00
2023-01-01T18:54:41.790Z,10.50
2023-01-01T18:57:25.296Z,16.23
2023-01-01T18:59:58.330Z,18.02
2023-01-01T19:02:35.004Z,15.75
2023-01-01T19:05:27.444Z,11.07
2023-01-01T19:08:06.262Z,12.02
2023-01-01T19:10:46.998Z,14.95
2023-01-01T19:13:16.260Z,13.55
2023-01-01T19:16:12.256Z,9.50
2023-01-01T19:18:41.766Z,12.18
2023-01-01T19:21:11.678Z,9.60
2023-01-01T19:23:47.303Z,10.45
2023-01-01T19:26:22.349Z,16.48
2023-01-01T19:28:59.876Z,10.65
2023-01-01T19:31:26.844Z,12.00
2023-01-01T19:33:53.934Z,15.02
2023-01-01T19:36:20.762Z,9.23
2023-01-01T19:38:47.696Z,13.50
2023-01-01T19:41:14.527Z,7.80
2023-01-01T19:43:41.414Z,7.85
2023-01-01T19:46:08.280Z,13.43
2023-01-01T19:48:35.279Z,7.60
2023-01-01T19:51:02.298Z,9.35
2023-01-01T19:53:29.166Z,8.43
2023-01-01T19:55:56.015Z,8.93
2023-01-01T19:58:23.163Z,9.02
2023-01-01T20:00:51.092Z,7.63
2023-01-01T20:06:06.249Z,8.20
2023-01-01T20:08:34.005Z,7.47
2023-01-01T20:11:01.239Z,8.95
2023-01-01T20:13:28.165Z,8.50
2023-01-01T20:15:55.195Z,8.13
2023-01-01T20:18:22.166Z,7.72
2023-01-01T20:21:07.302Z,8.82
2023-01-01T20:23:34.236Z,8.45
2023-01-01T20:26:01.370Z,11.35
2023-01-01T20:28:46.752Z,5.32
2023-01-01T20:31:13.634Z,5.68
2023-01-01T20:33:40.552Z,8.82
2023-01-01T20:36:26.296Z,9.95
2023-01-01T20:38:53.188Z,12.95
2023-01-01T20:41:25.977Z,7.90
2023-01-01T20:43:59.691Z,8.52
2023-01-01T20:46:26.819Z,13.90
2023-01-01T20:48:53.799Z,12.88
2023-01-01T20:51:20.818Z,7.30
2023-01-01T20:53:47.762Z,9.77
2023-01-01T20:56:14.862Z,13.80
2023-01-01T20:58:48.018Z,9.45
2023-01-01T21:01:17.079Z,10.02
2023-01-01T21:03:44.116Z,7.80
2023-01-01T21:06:11.007Z,10.48
2023-01-01T21:08:37.960Z,8.68
2023-01-01T21:11:05.315Z,9.73
2023-01-01T21:13:32.338Z,8.85
2023-01-01T21:16:24.034Z,11.73
2023-01-01T21:18:52.024Z,9.00
2023-01-01T21:21:20.390Z,9.98
2023-01-01T21:23:47.784Z,10.88
2023-01-01T21:26:22.645Z,11.70
2023-01-01T21:28:49.952Z,12.35
2023-01-01T21:31:17.066Z,9.32
2023-01-01T21:33:44.820Z,11.32
2023-01-01T21:36:18.663Z,10.05
2023-01-01T21:38:47.158Z,8.68
2023-01-01T21:41:19.985Z,11.10
2023-01-01T21:43:50.257Z,9.75
2023-01-01T21:46:25.147Z,13.50
2023-01-01T21:48:57.738Z,10.85
2023-01-01T21:51:42.270Z,10.20
2023-01-01T21:54:14.761Z,11.63
2023-01-01T21:56:43.523Z,12.80
2023-01-01T21:59:37.434Z,12.23
2023-01-01T22:02:07.547Z,9.07
2023-01-01T22:04:50.676Z,12.57
2023-01-01T22:10:29.666Z,12.93
2023-01-01T22:12:58.923Z,12.70
2023-01-01T22:15:33.445Z,11.63
2023-01-01T22:18:11.956Z,11.75
2023-01-01T22:20:42.328Z,10.52
2023-01-01T22:23:36.261Z,9.13
2023-01-01T22:26:18.652Z,12.48
2023-01-01T22:28:49.224Z,12.10
2023-01-01T22:31:24.869Z,12.50
2023-01-01T22:33:53.846Z,8.83
2023-01-01T22:36:25.527Z,9.43
2023-01-01T22:38:59.951Z,11.17
2023-01-01T22:41:26.836Z,11.55
2023-01-01T22:44:00.372Z,11.15
2023-01-01T22:46:31.942Z,10.57
2023-01-01T22:49:01.185Z,13.80
2023-01-01T22:51:42.267Z,12.73
2023-01-01T22:54:09.364Z,11.05
2023-01-01T22:56:36.273Z,11.00
2023-01-01T22:59:04.325Z,10.98
2023-01-01T23:01:31.336Z,14.63
2023-01-01T23:03:58.342Z,14.05
2023-01-01T23:06:25.853Z,11.75
2023-01-01T23:08:53.559Z,13.98
2023-01-01T23:11:20.895Z,15.60
2023-01-01T23:14:08.035Z,15.80
2023-01-01T23:16:35.491Z,14.50
2023-01-01T23:19:02.618Z,14.90
2023-01-01T23:21:31.164Z,12.73
2023-01-01T23:24:00.235Z,13.30
2023-01-01T23:26:27.473Z,12.95
2023-01-01T23:28:55.403Z,13.63
2023-01-01T23:31:27.422Z,16.77
2023-01-01T23:33:55.844Z,17.52
2023-01-01T23:36:24.218Z,15.02
2023-01-01T23:38:51.078Z,12.52
2023-01-01T23:41:18.132Z,12.45
2023-01-01T23:43:45.086Z,17.33
2023-01-01T23:46:13.663Z,15.23
2023-01-01T23:48:47.725Z,10.75
2023-01-01T23:51:16.380Z,13.93
2023-01-01T23:53:43.233Z,15.07
2023-01-01T23:56:10.303Z,17.40
2023-01-01T23:58:37.130Z,12.45
